sensor_id;sensor_type;location;lat;lon;timestamp;P1;durP1;ratioP1;P2;durP2;ratioP2
10122;SDS011;5101;49.038;8.710;2022-07-06T00:01:23;4.35;;;1.55;;
10122;SDS011;5101;49.038;8.710;2022-07-06T00:03:49;3.88;;;1.67;;
10122;SDS011;5101;49.038;8.710;2022-07-06T00:06:14;3.15;;;1.60;;
10122;SDS011;5101;49.038;8.710;2022-07-06T00:08:42;1.58;;;1.40;;
10122;SDS011;5101;49.038;8.710;2022-07-06T00:11:08;2.58;;;1.70;;
10122;SDS011;5101;49.038;8.710;2022-07-06T00:13:34;3.17;;;1.70;;
10122;SDS011;5101;49.038;8.710;2022-07-06T00:15:59;1.77;;;1.50;;
10122;SDS011;5101;49.038;8.710;2022-07-06T00:18:25;4.25;;;1.88;;
10122;SDS011;5101;49.038;8.710;2022-07-06T00:20:50;3.58;;;1.63;;
10122;SDS011;5101;49.038;8.710;2022-07-06T00:23:16;3.05;;;1.52;;
10122;SDS011;5101;49.038;8.710;2022-07-06T00:25:42;2.35;;;1.60;;
10122;SDS011;5101;49.038;8.710;2022-07-06T00:28:07;3.95;;;1.95;;
10122;SDS011;5101;49.038;8.710;2022-07-06T00:30:33;3.67;;;1.80;;
10122;SDS011;5101;49.038;8.710;2022-07-06T00:32:58;1.50;;;1.40;;
10122;SDS011;5101;49.038;8.710;2022-07-06T00:35:24;2.20;;;1.67;;
10122;SDS011;5101;49.038;8.710;2022-07-06T00:37:50;2.40;;;1.42;;
10122;SDS011;5101;49.038;8.710;2022-07-06T00:40:16;3.42;;;1.63;;
10122;SDS011;5101;49.038;8.710;2022-07-06T00:42:42;2.75;;;1.50;;
10122;SDS011;5101;49.038;8.710;2022-07-06T00:45:10;4.05;;;1.33;;
10122;SDS011;5101;49.038;8.710;2022-07-06T00:47:37;1.77;;;1.50;;
10122;SDS011;5101;49.038;8.710;2022-07-06T00:50:04;1.60;;;1.40;;
10122;SDS011;5101;49.038;8.710;2022-07-06T00:52:43;2.38;;;1.50;;
10122;SDS011;5101;49.038;8.710;2022-07-06T00:55:10;1.33;;;1.30;;
10122;SDS011;5101;49.038;8.710;2022-07-06T00:57:37;1.60;;;1.48;;
10122;SDS011;5101;49.038;8.710;2022-07-06T01:00:04;1.98;;;1.30;;
10122;SDS011;5101;49.038;8.710;2022-07-06T01:02:32;3.55;;;1.73;;
10122;SDS011;5101;49.038;8.710;2022-07-06T01:04:59;1.98;;;1.50;;
10122;SDS011;5101;49.038;8.710;2022-07-06T01:07:25;3.08;;;1.63;;
10122;SDS011;5101;49.038;8.710;2022-07-06T01:09:50;4.03;;;1.70;;
10122;SDS011;5101;49.038;8.710;2022-07-06T01:12:16;1.60;;;1.50;;
10122;SDS011;5101;49.038;8.710;2022-07-06T01:14:42;1.63;;;1.23;;
10122;SDS011;5101;49.038;8.710;2022-07-06T01:17:09;1.73;;;1.63;;
10122;SDS011;5101;49.038;8.710;2022-07-06T01:19:34;2.25;;;1.27;;
10122;SDS011;5101;49.038;8.710;2022-07-06T01:22:00;1.40;;;1.30;;
10122;SDS011;5101;49.038;8.710;2022-07-06T01:24:26;3.80;;;1.52;;
10122;SDS011;5101;49.038;8.710;2022-07-06T01:26:52;1.70;;;1.60;;
10122;SDS011;5101;49.038;8.710;2022-07-06T01:29:17;5.95;;;1.30;;
10122;SDS011;5101;49.038;8.710;2022-07-06T01:31:47;2.42;;;1.70;;
10122;SDS011;5101;49.038;8.710;2022-07-06T01:34:14;2.83;;;1.70;;
10122;SDS011;5101;49.038;8.710;2022-07-06T01:36:40;1.60;;;1.50;;
10122;SDS011;5101;49.038;8.710;2022-07-06T01:39:07;3.67;;;1.70;;
10122;SDS011;5101;49.038;8.710;2022-07-06T01:41:33;1.50;;;1.40;;
10122;SDS011;5101;49.038;8.710;2022-07-06T01:43:59;2.72;;;1.45;;
10122;SDS011;5101;49.038;8.710;2022-07-06T01:46:25;1.25;;;1.15;;
10122;SDS011;5101;49.038;8.710;2022-07-06T01:48:50;1.83;;;1.40;;
10122;SDS011;5101;49.038;8.710;2022-07-06T01:51:16;2.53;;;1.50;;
10122;SDS011;5101;49.038;8.710;2022-07-06T01:53:41;1.80;;;1.48;;
10122;SDS011;5101;49.038;8.710;2022-07-06T01:56:07;2.85;;;1.60;;
10122;SDS011;5101;49.038;8.710;2022-07-06T01:58:33;1.48;;;1.38;;
10122;SDS011;5101;49.038;8.710;2022-07-06T02:00:59;1.65;;;1.48;;
10122;SDS011;5101;49.038;8.710;2022-07-06T02:03:25;3.13;;;1.60;;
10122;SDS011;5101;49.038;8.710;2022-07-06T02:05:51;3.65;;;1.42;;
10122;SDS011;5101;49.038;8.710;2022-07-06T02:08:17;2.90;;;1.45;;
10122;SDS011;5101;49.038;8.710;2022-07-06T02:10:42;2.50;;;1.35;;
10122;SDS011;5101;49.038;8.710;2022-07-06T02:13:08;3.38;;;1.83;;
10122;SDS011;5101;49.038;8.710;2022-07-06T02:15:33;3.33;;;1.58;;
10122;SDS011;5101;49.038;8.710;2022-07-06T02:17:59;1.73;;;1.58;;
10122;SDS011;5101;49.038;8.710;2022-07-06T02:20:24;2.80;;;1.63;;
10122;SDS011;5101;49.038;8.710;2022-07-06T02:22:50;2.53;;;1.55;;
10122;SDS011;5101;49.038;8.710;2022-07-06T02:25:16;3.17;;;1.65;;
10122;SDS011;5101;49.038;8.710;2022-07-06T02:27:41;3.30;;;1.63;;
10122;SDS011;5101;49.038;8.710;2022-07-06T02:30:07;3.38;;;1.70;;
10122;SDS011;5101;49.038;8.710;2022-07-06T02:32:32;6.25;;;1.70;;
10122;SDS011;5101;49.038;8.710;2022-07-06T02:34:58;3.45;;;1.83;;
10122;SDS011;5101;49.038;8.710;2022-07-06T02:37:23;4.40;;;1.90;;
10122;SDS011;5101;49.038;8.710;2022-07-06T02:39:49;5.00;;;1.95;;
10122;SDS011;5101;49.038;8.710;2022-07-06T02:42:15;2.35;;;2.10;;
10122;SDS011;5101;49.038;8.710;2022-07-06T02:44:40;2.05;;;1.85;;
10122;SDS011;5101;49.038;8.710;2022-07-06T02:47:06;3.30;;;2.00;;
10122;SDS011;5101;49.038;8.710;2022-07-06T02:49:31;1.67;;;1.58;;
10122;SDS011;5101;49.038;8.710;2022-07-06T02:51:57;1.92;;;1.70;;
10122;SDS011;5101;49.038;8.710;2022-07-06T02:54:22;6.15;;;1.92;;
10122;SDS011;5101;49.038;8.710;2022-07-06T02:56:48;2.13;;;2.00;;
10122;SDS011;5101;49.038;8.710;2022-07-06T02:59:17;3.83;;;2.05;;
10122;SDS011;5101;49.038;8.710;2022-07-06T03:01:43;2.22;;;1.88;;
10122;SDS011;5101;49.038;8.710;2022-07-06T03:04:08;1.98;;;1.80;;
10122;SDS011;5101;49.038;8.710;2022-07-06T03:06:34;2.88;;;1.90;;
10122;SDS011;5101;49.038;8.710;2022-07-06T03:08:59;2.90;;;2.00;;
10122;SDS011;5101;49.038;8.710;2022-07-06T03:11:25;5.00;;;1.85;;
10122;SDS011;5101;49.038;8.710;2022-07-06T03:13:51;2.67;;;1.90;;
10122;SDS011;5101;49.038;8.710;2022-07-06T03:16:16;2.13;;;1.83;;
10122;SDS011;5101;49.038;8.710;2022-07-06T03:18:42;2.65;;;2.00;;
10122;SDS011;5101;49.038;8.710;2022-07-06T03:21:07;4.47;;;2.15;;
10122;SDS011;5101;49.038;8.710;2022-07-06T03:23:33;3.20;;;1.92;;
10122;SDS011;5101;49.038;8.710;2022-07-06T03:25:59;5.60;;;2.10;;
10122;SDS011;5101;49.038;8.710;2022-07-06T03:28:25;2.85;;;2.00;;
10122;SDS011;5101;49.038;8.710;2022-07-06T03:30:50;4.03;;;2.33;;
10122;SDS011;5101;49.038;8.710;2022-07-06T03:33:16;3.00;;;2.20;;
10122;SDS011;5101;49.038;8.710;2022-07-06T03:35:41;3.00;;;2.03;;
10122;SDS011;5101;49.038;8.710;2022-07-06T03:38:07;3.33;;;2.17;;
10122;SDS011;5101;49.038;8.710;2022-07-06T03:40:33;2.47;;;2.28;;
10122;SDS011;5101;49.038;8.710;2022-07-06T03:42:59;2.17;;;1.98;;
10122;SDS011;5101;49.038;8.710;2022-07-06T03:45:24;5.80;;;2.38;;
10122;SDS011;5101;49.038;8.710;2022-07-06T03:47:50;2.75;;;2.53;;
10122;SDS011;5101;49.038;8.710;2022-07-06T03:50:15;3.70;;;2.20;;
10122;SDS011;5101;49.038;8.710;2022-07-06T03:52:41;4.47;;;2.47;;
10122;SDS011;5101;49.038;8.710;2022-07-06T03:55:10;2.42;;;2.22;;
10122;SDS011;5101;49.038;8.710;2022-07-06T03:57:36;3.78;;;2.67;;
10122;SDS011;5101;49.038;8.710;2022-07-06T04:00:05;8.57;;;2.78;;
10122;SDS011;5101;49.038;8.710;2022-07-06T04:02:32;2.90;;;2.60;;
10122;SDS011;5101;49.038;8.710;2022-07-06T04:04:58;3.13;;;2.63;;
10122;SDS011;5101;49.038;8.710;2022-07-06T04:07:23;3.88;;;2.67;;
10122;SDS011;5101;49.038;8.710;2022-07-06T04:09:50;2.75;;;2.55;;
10122;SDS011;5101;49.038;8.710;2022-07-06T04:12:15;5.03;;;2.63;;
10122;SDS011;5101;49.038;8.710;2022-07-06T04:14:40;4.40;;;2.72;;
10122;SDS011;5101;49.038;8.710;2022-07-06T04:17:06;8.55;;;2.85;;
10122;SDS011;5101;49.038;8.710;2022-07-06T04:19:50;3.67;;;3.00;;
10122;SDS011;5101;49.038;8.710;2022-07-06T04:22:16;5.45;;;2.95;;
10122;SDS011;5101;49.038;8.710;2022-07-06T04:24:41;4.95;;;2.50;;
10122;SDS011;5101;49.038;8.710;2022-07-06T04:27:07;4.78;;;2.70;;
10122;SDS011;5101;49.038;8.710;2022-07-06T04:29:33;4.07;;;2.78;;
10122;SDS011;5101;49.038;8.710;2022-07-06T04:31:58;4.13;;;2.55;;
10122;SDS011;5101;49.038;8.710;2022-07-06T04:34:24;3.67;;;2.78;;
10122;SDS011;5101;49.038;8.710;2022-07-06T04:36:49;3.10;;;2.85;;
10122;SDS011;5101;49.038;8.710;2022-07-06T04:39:15;4.47;;;2.72;;
10122;SDS011;5101;49.038;8.710;2022-07-06T04:41:40;2.63;;;2.42;;
10122;SDS011;5101;49.038;8.710;2022-07-06T04:44:06;2.83;;;2.63;;
10122;SDS011;5101;49.038;8.710;2022-07-06T04:46:31;2.47;;;2.28;;
10122;SDS011;5101;49.038;8.710;2022-07-06T04:48:57;5.38;;;2.70;;
10122;SDS011;5101;49.038;8.710;2022-07-06T04:51:22;4.53;;;2.50;;
10122;SDS011;5101;49.038;8.710;2022-07-06T04:53:48;2.85;;;2.30;;
10122;SDS011;5101;49.038;8.710;2022-07-06T04:56:13;3.00;;;2.45;;
10122;SDS011;5101;49.038;8.710;2022-07-06T04:58:39;3.83;;;2.55;;
10122;SDS011;5101;49.038;8.710;2022-07-06T05:01:05;2.92;;;1.88;;
10122;SDS011;5101;49.038;8.710;2022-07-06T05:03:30;2.40;;;2.20;;
10122;SDS011;5101;49.038;8.710;2022-07-06T05:05:56;5.90;;;2.03;;
10122;SDS011;5101;49.038;8.710;2022-07-06T05:08:21;5.03;;;2.17;;
10122;SDS011;5101;49.038;8.710;2022-07-06T05:10:47;2.92;;;2.22;;
10122;SDS011;5101;49.038;8.710;2022-07-06T05:13:13;2.03;;;1.80;;
10122;SDS011;5101;49.038;8.710;2022-07-06T05:15:39;2.58;;;1.73;;
10122;SDS011;5101;49.038;8.710;2022-07-06T05:18:05;3.58;;;2.10;;
10122;SDS011;5101;49.038;8.710;2022-07-06T05:20:30;2.85;;;2.17;;
10122;SDS011;5101;49.038;8.710;2022-07-06T05:22:56;4.53;;;2.00;;
10122;SDS011;5101;49.038;8.710;2022-07-06T05:25:21;4.88;;;2.25;;
10122;SDS011;5101;49.038;8.710;2022-07-06T05:27:47;3.80;;;2.40;;
10122;SDS011;5101;49.038;8.710;2022-07-06T05:30:13;4.63;;;2.45;;
10122;SDS011;5101;49.038;8.710;2022-07-06T05:32:40;3.35;;;1.52;;
10122;SDS011;5101;49.038;8.710;2022-07-06T05:35:06;3.58;;;1.80;;
10122;SDS011;5101;49.038;8.710;2022-07-06T05:37:32;4.55;;;1.77;;
10122;SDS011;5101;49.038;8.710;2022-07-06T05:39:58;1.70;;;1.40;;
10122;SDS011;5101;49.038;8.710;2022-07-06T05:42:23;1.83;;;1.40;;
10122;SDS011;5101;49.038;8.710;2022-07-06T05:44:49;2.20;;;1.75;;
10122;SDS011;5101;49.038;8.710;2022-07-06T05:47:14;3.88;;;1.63;;
10122;SDS011;5101;49.038;8.710;2022-07-06T05:49:58;2.45;;;1.63;;
10122;SDS011;5101;49.038;8.710;2022-07-06T05:52:43;3.08;;;1.60;;
10122;SDS011;5101;49.038;8.710;2022-07-06T05:55:10;5.38;;;1.60;;
10122;SDS011;5101;49.038;8.710;2022-07-06T05:57:36;3.55;;;1.63;;
10122;SDS011;5101;49.038;8.710;2022-07-06T06:00:04;4.75;;;1.90;;
10122;SDS011;5101;49.038;8.710;2022-07-06T06:02:40;3.85;;;1.85;;
10122;SDS011;5101;49.038;8.710;2022-07-06T06:05:09;5.05;;;1.63;;
10122;SDS011;5101;49.038;8.710;2022-07-06T06:07:36;2.78;;;1.50;;
10122;SDS011;5101;49.038;8.710;2022-07-06T06:10:03;7.95;;;1.50;;
10122;SDS011;5101;49.038;8.710;2022-07-06T06:12:30;1.88;;;1.38;;
10122;SDS011;5101;49.038;8.710;2022-07-06T06:14:55;3.25;;;1.55;;
10122;SDS011;5101;49.038;8.710;2022-07-06T06:17:21;6.43;;;1.40;;
10122;SDS011;5101;49.038;8.710;2022-07-06T06:19:46;4.55;;;1.45;;
10122;SDS011;5101;49.038;8.710;2022-07-06T06:22:12;1.80;;;1.25;;
10122;SDS011;5101;49.038;8.710;2022-07-06T06:24:38;4.18;;;1.40;;
10122;SDS011;5101;49.038;8.710;2022-07-06T06:27:04;2.33;;;1.30;;
10122;SDS011;5101;49.038;8.710;2022-07-06T06:29:29;2.35;;;1.25;;
10122;SDS011;5101;49.038;8.710;2022-07-06T06:31:55;4.25;;;1.40;;
10122;SDS011;5101;49.038;8.710;2022-07-06T06:34:20;1.33;;;1.15;;
10122;SDS011;5101;49.038;8.710;2022-07-06T06:36:46;1.60;;;1.30;;
10122;SDS011;5101;49.038;8.710;2022-07-06T06:39:11;2.50;;;1.50;;
10122;SDS011;5101;49.038;8.710;2022-07-06T06:41:37;3.20;;;1.40;;
10122;SDS011;5101;49.038;8.710;2022-07-06T06:44:02;4.40;;;1.50;;
10122;SDS011;5101;49.038;8.710;2022-07-06T06:46:28;1.95;;;1.40;;
10122;SDS011;5101;49.038;8.710;2022-07-06T06:48:54;3.50;;;1.35;;
10122;SDS011;5101;49.038;8.710;2022-07-06T06:51:19;3.05;;;1.48;;
10122;SDS011;5101;49.038;8.710;2022-07-06T06:53:45;2.47;;;1.40;;
10122;SDS011;5101;49.038;8.710;2022-07-06T06:56:11;2.20;;;1.40;;
10122;SDS011;5101;49.038;8.710;2022-07-06T06:58:37;2.63;;;1.30;;
10122;SDS011;5101;49.038;8.710;2022-07-06T07:01:03;3.88;;;1.63;;
10122;SDS011;5101;49.038;8.710;2022-07-06T07:03:29;4.45;;;1.50;;
10122;SDS011;5101;49.038;8.710;2022-07-06T07:05:55;2.30;;;1.20;;
10122;SDS011;5101;49.038;8.710;2022-07-06T07:08:21;1.23;;;1.08;;
10122;SDS011;5101;49.038;8.710;2022-07-06T07:10:46;2.63;;;1.17;;
10122;SDS011;5101;49.038;8.710;2022-07-06T07:13:12;3.70;;;1.27;;
10122;SDS011;5101;49.038;8.710;2022-07-06T07:15:37;2.25;;;1.60;;
10122;SDS011;5101;49.038;8.710;2022-07-06T07:18:03;3.28;;;1.13;;
10122;SDS011;5101;49.038;8.710;2022-07-06T07:20:29;2.13;;;1.10;;
10122;SDS011;5101;49.038;8.710;2022-07-06T07:22:55;3.13;;;1.35;;
10122;SDS011;5101;49.038;8.710;2022-07-06T07:25:21;3.35;;;1.42;;
10122;SDS011;5101;49.038;8.710;2022-07-06T07:27:46;3.20;;;1.30;;
10122;SDS011;5101;49.038;8.710;2022-07-06T07:30:12;2.10;;;1.20;;
10122;SDS011;5101;49.038;8.710;2022-07-06T07:32:38;3.70;;;1.50;;
10122;SDS011;5101;49.038;8.710;2022-07-06T07:35:05;2.53;;;1.08;;
10122;SDS011;5101;49.038;8.710;2022-07-06T07:37:31;1.80;;;1.10;;
10122;SDS011;5101;49.038;8.710;2022-07-06T07:39:57;3.75;;;1.35;;
10122;SDS011;5101;49.038;8.710;2022-07-06T07:42:23;1.90;;;1.20;;
10122;SDS011;5101;49.038;8.710;2022-07-06T07:44:49;4.90;;;1.80;;
10122;SDS011;5101;49.038;8.710;2022-07-06T07:47:14;4.57;;;1.50;;
10122;SDS011;5101;49.038;8.710;2022-07-06T07:49:40;5.38;;;1.50;;
10122;SDS011;5101;49.038;8.710;2022-07-06T07:52:06;1.80;;;1.23;;
10122;SDS011;5101;49.038;8.710;2022-07-06T07:54:31;3.03;;;1.40;;
10122;SDS011;5101;49.038;8.710;2022-07-06T07:56:57;2.47;;;1.50;;
10122;SDS011;5101;49.038;8.710;2022-07-06T07:59:23;2.08;;;1.38;;
10122;SDS011;5101;49.038;8.710;2022-07-06T08:01:48;3.08;;;1.40;;
10122;SDS011;5101;49.038;8.710;2022-07-06T08:04:14;2.95;;;1.40;;
10122;SDS011;5101;49.038;8.710;2022-07-06T08:06:40;5.03;;;1.30;;
10122;SDS011;5101;49.038;8.710;2022-07-06T08:09:05;3.75;;;1.60;;
10122;SDS011;5101;49.038;8.710;2022-07-06T08:11:32;2.05;;;1.10;;
10122;SDS011;5101;49.038;8.710;2022-07-06T08:13:59;3.15;;;1.58;;
10122;SDS011;5101;49.038;8.710;2022-07-06T08:16:25;3.03;;;1.55;;
10122;SDS011;5101;49.038;8.710;2022-07-06T08:18:50;4.80;;;1.85;;
10122;SDS011;5101;49.038;8.710;2022-07-06T08:21:16;1.95;;;1.38;;
10122;SDS011;5101;49.038;8.710;2022-07-06T08:23:41;5.82;;;1.98;;
10122;SDS011;5101;49.038;8.710;2022-07-06T08:26:07;2.58;;;1.70;;
10122;SDS011;5101;49.038;8.710;2022-07-06T08:28:32;3.72;;;1.58;;
10122;SDS011;5101;49.038;8.710;2022-07-06T08:30:58;4.22;;;1.50;;
10122;SDS011;5101;49.038;8.710;2022-07-06T08:33:23;4.13;;;1.65;;
10122;SDS011;5101;49.038;8.710;2022-07-06T08:35:49;5.40;;;1.60;;
10122;SDS011;5101;49.038;8.710;2022-07-06T08:38:14;5.13;;;1.48;;
10122;SDS011;5101;49.038;8.710;2022-07-06T08:40:40;4.40;;;1.60;;
10122;SDS011;5101;49.038;8.710;2022-07-06T08:43:08;3.05;;;1.50;;
10122;SDS011;5101;49.038;8.710;2022-07-06T08:45:34;2.72;;;1.33;;
10122;SDS011;5101;49.038;8.710;2022-07-06T08:48:03;5.13;;;1.80;;
10122;SDS011;5101;49.038;8.710;2022-07-06T08:50:30;3.85;;;1.60;;
10122;SDS011;5101;49.038;8.710;2022-07-06T08:52:57;5.20;;;1.70;;
10122;SDS011;5101;49.038;8.710;2022-07-06T08:55:23;3.42;;;1.52;;
10122;SDS011;5101;49.038;8.710;2022-07-06T08:57:50;5.43;;;2.15;;
10122;SDS011;5101;49.038;8.710;2022-07-06T09:00:16;2.17;;;1.50;;
10122;SDS011;5101;49.038;8.710;2022-07-06T09:02:42;3.30;;;1.85;;
10122;SDS011;5101;49.038;8.710;2022-07-06T09:05:08;3.67;;;1.60;;
10122;SDS011;5101;49.038;8.710;2022-07-06T09:07:39;4.43;;;1.67;;
10122;SDS011;5101;49.038;8.710;2022-07-06T09:10:05;4.43;;;1.45;;
10122;SDS011;5101;49.038;8.710;2022-07-06T09:12:33;4.10;;;1.65;;
10122;SDS011;5101;49.038;8.710;2022-07-06T09:14:58;3.05;;;1.48;;
10122;SDS011;5101;49.038;8.710;2022-07-06T09:17:25;3.80;;;1.60;;
10122;SDS011;5101;49.038;8.710;2022-07-06T09:19:52;6.82;;;1.80;;
10122;SDS011;5101;49.038;8.710;2022-07-06T09:22:28;5.00;;;1.95;;
10122;SDS011;5101;49.038;8.710;2022-07-06T09:25:09;4.85;;;1.80;;
10122;SDS011;5101;49.038;8.710;2022-07-06T09:27:41;4.45;;;1.85;;
10122;SDS011;5101;49.038;8.710;2022-07-06T09:30:09;4.45;;;1.80;;
10122;SDS011;5101;49.038;8.710;2022-07-06T09:32:55;5.53;;;2.10;;
10122;SDS011;5101;49.038;8.710;2022-07-06T09:35:23;3.92;;;1.80;;
10122;SDS011;5101;49.038;8.710;2022-07-06T09:38:03;2.65;;;1.58;;
10122;SDS011;5101;49.038;8.710;2022-07-06T09:40:31;1.85;;;1.65;;
10122;SDS011;5101;49.038;8.710;2022-07-06T09:43:18;3.35;;;1.85;;
10122;SDS011;5101;49.038;8.710;2022-07-06T09:48:12;2.95;;;1.88;;
10122;SDS011;5101;49.038;8.710;2022-07-06T09:50:49;4.60;;;2.15;;
10122;SDS011;5101;49.038;8.710;2022-07-06T09:53:17;4.38;;;2.15;;
10122;SDS011;5101;49.038;8.710;2022-07-06T09:55:48;2.90;;;2.00;;
10122;SDS011;5101;49.038;8.710;2022-07-06T09:58:15;5.88;;;2.00;;
10122;SDS011;5101;49.038;8.710;2022-07-06T10:00:44;3.45;;;1.83;;
10122;SDS011;5101;49.038;8.710;2022-07-06T10:03:11;3.08;;;1.70;;
10122;SDS011;5101;49.038;8.710;2022-07-06T10:05:38;3.50;;;2.10;;
10122;SDS011;5101;49.038;8.710;2022-07-06T10:08:06;2.10;;;1.50;;
10122;SDS011;5101;49.038;8.710;2022-07-06T10:10:34;2.47;;;1.80;;
10122;SDS011;5101;49.038;8.710;2022-07-06T10:13:01;5.50;;;2.53;;
10122;SDS011;5101;49.038;8.710;2022-07-06T10:15:28;4.35;;;2.00;;
10122;SDS011;5101;49.038;8.710;2022-07-06T10:17:57;4.47;;;2.30;;
10122;SDS011;5101;49.038;8.710;2022-07-06T10:20:23;6.35;;;2.10;;
10122;SDS011;5101;49.038;8.710;2022-07-06T10:22:52;5.28;;;2.03;;
10122;SDS011;5101;49.038;8.710;2022-07-06T10:25:22;3.00;;;2.08;;
10122;SDS011;5101;49.038;8.710;2022-07-06T10:27:48;4.47;;;2.45;;
10122;SDS011;5101;49.038;8.710;2022-07-06T10:30:14;3.40;;;2.17;;
10122;SDS011;5101;49.038;8.710;2022-07-06T10:32:41;5.78;;;2.10;;
10122;SDS011;5101;49.038;8.710;2022-07-06T10:35:08;3.65;;;1.73;;
10122;SDS011;5101;49.038;8.710;2022-07-06T10:37:34;4.63;;;1.80;;
10122;SDS011;5101;49.038;8.710;2022-07-06T10:40:00;5.43;;;1.75;;
10122;SDS011;5101;49.038;8.710;2022-07-06T10:42:45;5.00;;;1.85;;
10122;SDS011;5101;49.038;8.710;2022-07-06T10:45:14;4.45;;;1.75;;
10122;SDS011;5101;49.038;8.710;2022-07-06T10:47:45;2.38;;;1.70;;
10122;SDS011;5101;49.038;8.710;2022-07-06T10:50:11;4.97;;;2.00;;
10122;SDS011;5101;49.038;8.710;2022-07-06T10:52:50;6.07;;;1.70;;
10122;SDS011;5101;49.038;8.710;2022-07-06T10:57:59;2.05;;;1.20;;
10122;SDS011;5101;49.038;8.710;2022-07-06T11:00:25;3.08;;;1.85;;
10122;SDS011;5101;49.038;8.710;2022-07-06T11:02:51;2.83;;;1.48;;
10122;SDS011;5101;49.038;8.710;2022-07-06T11:08:10;1.10;;;1.00;;
10122;SDS011;5101;49.038;8.710;2022-07-06T11:10:48;1.48;;;1.10;;
10122;SDS011;5101;49.038;8.710;2022-07-06T11:13:26;1.98;;;1.13;;
10122;SDS011;5101;49.038;8.710;2022-07-06T11:15:56;1.52;;;1.35;;
10122;SDS011;5101;49.038;8.710;2022-07-06T11:18:28;2.55;;;1.40;;
10122;SDS011;5101;49.038;8.710;2022-07-06T11:21:15;5.13;;;1.08;;
10122;SDS011;5101;49.038;8.710;2022-07-06T11:23:41;3.05;;;1.17;;
10122;SDS011;5101;49.038;8.710;2022-07-06T11:26:08;1.75;;;1.10;;
10122;SDS011;5101;49.038;8.710;2022-07-06T11:28:35;4.85;;;1.10;;
10122;SDS011;5101;49.038;8.710;2022-07-06T11:31:02;3.70;;;1.20;;
10122;SDS011;5101;49.038;8.710;2022-07-06T11:33:30;4.35;;;1.38;;
10122;SDS011;5101;49.038;8.710;2022-07-06T11:36:16;3.42;;;1.58;;
10122;SDS011;5101;49.038;8.710;2022-07-06T11:38:43;1.38;;;1.25;;
10122;SDS011;5101;49.038;8.710;2022-07-06T11:41:09;4.78;;;1.20;;
10122;SDS011;5101;49.038;8.710;2022-07-06T11:43:37;3.75;;;1.00;;
10122;SDS011;5101;49.038;8.710;2022-07-06T11:46:07;2.75;;;1.10;;
10122;SDS011;5101;49.038;8.710;2022-07-06T11:48:47;3.08;;;1.00;;
10122;SDS011;5101;49.038;8.710;2022-07-06T11:51:13;6.40;;;1.40;;
10122;SDS011;5101;49.038;8.710;2022-07-06T11:53:43;3.20;;;1.08;;
10122;SDS011;5101;49.038;8.710;2022-07-06T11:56:14;4.95;;;1.30;;
10122;SDS011;5101;49.038;8.710;2022-07-06T11:58:41;3.38;;;1.20;;
10122;SDS011;5101;49.038;8.710;2022-07-06T12:01:09;4.13;;;1.33;;
10122;SDS011;5101;49.038;8.710;2022-07-06T12:03:35;2.92;;;1.23;;
10122;SDS011;5101;49.038;8.710;2022-07-06T12:06:02;3.85;;;1.17;;
10122;SDS011;5101;49.038;8.710;2022-07-06T12:08:28;3.22;;;1.25;;
10122;SDS011;5101;49.038;8.710;2022-07-06T12:10:54;2.45;;;1.15;;
10122;SDS011;5101;49.038;8.710;2022-07-06T12:13:20;3.45;;;1.10;;
10122;SDS011;5101;49.038;8.710;2022-07-06T12:15:46;1.65;;;1.00;;
10122;SDS011;5101;49.038;8.710;2022-07-06T12:18:11;7.60;;;1.05;;
10122;SDS011;5101;49.038;8.710;2022-07-06T12:20:37;1.88;;;0.93;;
10122;SDS011;5101;49.038;8.710;2022-07-06T12:23:06;4.10;;;1.00;;
10122;SDS011;5101;49.038;8.710;2022-07-06T12:25:33;2.58;;;0.95;;
10122;SDS011;5101;49.038;8.710;2022-07-06T12:27:59;5.53;;;1.08;;
10122;SDS011;5101;49.038;8.710;2022-07-06T12:30:25;4.22;;;1.02;;
10122;SDS011;5101;49.038;8.710;2022-07-06T12:35:40;1.60;;;1.00;;
10122;SDS011;5101;49.038;8.710;2022-07-06T12:38:07;2.15;;;1.02;;
10122;SDS011;5101;49.038;8.710;2022-07-06T12:40:35;3.50;;;1.23;;
10122;SDS011;5101;49.038;8.710;2022-07-06T12:43:02;2.83;;;0.82;;
10122;SDS011;5101;49.038;8.710;2022-07-06T12:45:28;2.58;;;1.00;;
10122;SDS011;5101;49.038;8.710;2022-07-06T12:52:59;2.97;;;1.30;;
10122;SDS011;5101;49.038;8.710;2022-07-06T12:55:26;3.08;;;1.20;;
10122;SDS011;5101;49.038;8.710;2022-07-06T12:57:53;3.50;;;1.10;;
10122;SDS011;5101;49.038;8.710;2022-07-06T13:00:19;2.60;;;1.08;;
10122;SDS011;5101;49.038;8.710;2022-07-06T13:02:46;2.45;;;1.20;;
10122;SDS011;5101;49.038;8.710;2022-07-06T13:05:14;4.32;;;1.23;;
10122;SDS011;5101;49.038;8.710;2022-07-06T13:07:44;1.05;;;0.88;;
10122;SDS011;5101;49.038;8.710;2022-07-06T13:10:12;2.10;;;1.08;;
10122;SDS011;5101;49.038;8.710;2022-07-06T13:12:38;4.45;;;1.05;;
10122;SDS011;5101;49.038;8.710;2022-07-06T13:15:05;1.83;;;0.80;;
10122;SDS011;5101;49.038;8.710;2022-07-06T13:17:32;3.63;;;0.80;;
10122;SDS011;5101;49.038;8.710;2022-07-06T13:19:58;4.25;;;1.10;;
10122;SDS011;5101;49.038;8.710;2022-07-06T13:22:24;3.83;;;0.85;;
10122;SDS011;5101;49.038;8.710;2022-07-06T13:24:49;2.08;;;0.85;;
10122;SDS011;5101;49.038;8.710;2022-07-06T13:27:15;1.83;;;0.90;;
10122;SDS011;5101;49.038;8.710;2022-07-06T13:29:40;1.00;;;0.80;;
10122;SDS011;5101;49.038;8.710;2022-07-06T13:32:06;3.65;;;1.05;;
10122;SDS011;5101;49.038;8.710;2022-07-06T13:34:32;1.52;;;0.80;;
10122;SDS011;5101;49.038;8.710;2022-07-06T13:37:00;4.72;;;0.90;;
10122;SDS011;5101;49.038;8.710;2022-07-06T13:39:26;3.65;;;1.10;;
10122;SDS011;5101;49.038;8.710;2022-07-06T13:41:52;2.17;;;0.80;;
10122;SDS011;5101;49.038;8.710;2022-07-06T13:44:19;4.47;;;1.10;;
10122;SDS011;5101;49.038;8.710;2022-07-06T13:46:44;0.95;;;0.70;;
10122;SDS011;5101;49.038;8.710;2022-07-06T13:49:10;3.28;;;0.98;;
10122;SDS011;5101;49.038;8.710;2022-07-06T13:51:36;3.60;;;1.00;;
10122;SDS011;5101;49.038;8.710;2022-07-06T13:54:01;4.13;;;1.00;;
10122;SDS011;5101;49.038;8.710;2022-07-06T13:56:27;2.72;;;1.10;;
10122;SDS011;5101;49.038;8.710;2022-07-06T13:58:53;4.22;;;0.88;;
10122;SDS011;5101;49.038;8.710;2022-07-06T14:01:19;4.25;;;0.90;;
10122;SDS011;5101;49.038;8.710;2022-07-06T14:03:45;3.33;;;0.90;;
10122;SDS011;5101;49.038;8.710;2022-07-06T14:06:10;1.65;;;0.88;;
10122;SDS011;5101;49.038;8.710;2022-07-06T14:08:36;1.65;;;0.80;;
10122;SDS011;5101;49.038;8.710;2022-07-06T14:11:03;2.58;;;1.00;;
10122;SDS011;5101;49.038;8.710;2022-07-06T14:13:30;1.65;;;0.80;;
10122;SDS011;5101;49.038;8.710;2022-07-06T14:15:56;3.22;;;0.70;;
10122;SDS011;5101;49.038;8.710;2022-07-06T14:18:22;1.85;;;0.75;;
10122;SDS011;5101;49.038;8.710;2022-07-06T14:20:48;2.55;;;0.80;;
10122;SDS011;5101;49.038;8.710;2022-07-06T14:23:15;3.05;;;0.80;;
10122;SDS011;5101;49.038;8.710;2022-07-06T14:25:41;1.92;;;0.57;;
10122;SDS011;5101;49.038;8.710;2022-07-06T14:28:07;1.70;;;0.90;;
10122;SDS011;5101;49.038;8.710;2022-07-06T14:30:33;0.73;;;0.70;;
10122;SDS011;5101;49.038;8.710;2022-07-06T14:33:01;0.77;;;0.75;;
10122;SDS011;5101;49.038;8.710;2022-07-06T14:35:31;1.65;;;0.73;;
10122;SDS011;5101;49.038;8.710;2022-07-06T14:37:58;1.98;;;0.70;;
10122;SDS011;5101;49.038;8.710;2022-07-06T14:40:24;1.20;;;0.70;;
10122;SDS011;5101;49.038;8.710;2022-07-06T14:42:49;1.05;;;0.60;;
10122;SDS011;5101;49.038;8.710;2022-07-06T14:45:15;1.45;;;0.60;;
10122;SDS011;5101;49.038;8.710;2022-07-06T14:47:40;2.60;;;0.77;;
10122;SDS011;5101;49.038;8.710;2022-07-06T14:50:06;3.53;;;1.00;;
10122;SDS011;5101;49.038;8.710;2022-07-06T14:52:32;2.08;;;0.70;;
10122;SDS011;5101;49.038;8.710;2022-07-06T14:54:57;1.52;;;0.60;;
10122;SDS011;5101;49.038;8.710;2022-07-06T14:57:24;1.25;;;0.52;;
10122;SDS011;5101;49.038;8.710;2022-07-06T14:59:50;0.75;;;0.65;;
10122;SDS011;5101;49.038;8.710;2022-07-06T15:02:16;1.58;;;0.80;;
10122;SDS011;5101;49.038;8.710;2022-07-06T15:04:41;2.10;;;0.82;;
10122;SDS011;5101;49.038;8.710;2022-07-06T15:07:07;1.35;;;0.80;;
10122;SDS011;5101;49.038;8.710;2022-07-06T15:09:32;1.98;;;0.50;;
10122;SDS011;5101;49.038;8.710;2022-07-06T15:11:58;1.50;;;0.90;;
10122;SDS011;5101;49.038;8.710;2022-07-06T15:14:24;3.13;;;0.98;;